Time;durP1;ratioP1;P1;durP2;ratioP2;P2;SDS_P1;SDS_P2;PMS_P1;PMS_P2;Temp;Humidity;BMP_temperature;BMP_pressure;BME280_temperature;BME280_humidity;BME280_pressure;Samples;Min_cycle;Max_cycle;Signal;HPM_P1;HPM_P2
2024/03/30 00:00:43;;;;;;;0.77;0.50;;;;;;;13.90;81.99;98984.41;5032191;28;20252;-76
2024/03/30 00:03:09;;;;;;;3.93;0.80;;;;;;;13.94;81.39;98998.19;5032159;28;20209;-77
2024/03/30 00:05:34;;;;;;;2.03;0.73;;;;;;;13.88;80.86;99012.50;5032590;28;20201;-77
2024/03/30 00:08:01;;;;;;;1.07;0.60;;;;;;;13.85;80.79;99010.03;5033953;28;20726;-77
2024/03/30 00:10:26;;;;;;;1.73;0.60;;;;;;;13.68;81.05;99029.31;5033644;28;20237;-77
2024/03/30 00:12:54;;;;;;;0.60;0.60;;;;;;;13.55;81.31;99026.50;5029098;28;20263;-76
2024/03/30 00:15:21;;;;;;;1.00;0.80;;;;;;;13.46;80.83;99021.78;5034346;28;20237;-77
2024/03/30 00:17:47;;;;;;;2.43;0.90;;;;;;;13.39;81.05;99020.41;5034578;28;20296;-77
2024/03/30 00:20:13;;;;;;;1.43;0.70;;;;;;;13.34;81.26;99007.53;5033752;28;20258;-75
2024/03/30 00:22:39;;;;;;;0.70;0.70;;;;;;;13.29;80.84;98999.03;5033809;28;20802;-77
2024/03/30 00:25:05;;;;;;;0.90;0.70;;;;;;;13.27;81.03;99006.97;5033657;28;20212;-77
2024/03/30 00:27:32;;;;;;;1.07;0.73;;;;;;;13.28;80.98;99020.94;5033975;28;20582;-73
2024/03/30 00:29:57;;;;;;;3.80;0.70;;;;;;;13.30;82.26;99019.97;5034023;28;20320;-77
2024/03/30 00:32:25;;;;;;;0.70;0.70;;;;;;;13.35;83.13;98983.00;5033612;28;20668;-77
2024/03/30 00:34:50;;;;;;;0.73;0.73;;;;;;;13.31;81.71;98986.72;5033471;28;20225;-77
2024/03/30 00:37:16;;;;;;;0.80;0.60;;;;;;;13.29;83.37;98980.69;5033912;28;20264;-77
2024/03/30 00:39:42;;;;;;;0.77;0.70;;;;;;;13.37;83.70;98951.50;5033468;28;20231;-75
2024/03/30 00:42:08;;;;;;;1.57;0.80;;;;;;;13.30;82.84;98977.19;5032883;28;20237;-77
2024/03/30 00:44:33;;;;;;;0.70;0.70;;;;;;;13.28;83.46;98969.38;5033762;28;20625;-76
2024/03/30 00:47:00;;;;;;;0.60;0.60;;;;;;;13.29;84.38;98968.47;5033644;28;20249;-77
2024/03/30 00:49:26;;;;;;;0.70;0.70;;;;;;;13.27;85.63;98965.03;5025267;28;20264;-77
2024/03/30 00:51:53;;;;;;;3.70;0.70;;;;;;;13.21;85.85;98941.81;5033585;28;20222;-76
2024/03/30 00:54:18;;;;;;;1.17;0.70;;;;;;;13.24;87.20;98941.66;5033338;28;20268;-76
2024/03/30 00:56:44;;;;;;;1.43;0.80;;;;;;;13.13;87.21;98958.88;5032905;28;20624;-76
2024/03/30 00:59:10;;;;;;;0.70;0.70;;;;;;;13.06;88.11;98955.72;5033391;28;20369;-77
2024/03/30 01:01:36;;;;;;;0.60;0.60;;;;;;;13.13;87.89;98927.44;5033342;28;20205;-76
2024/03/30 01:04:03;;;;;;;1.80;0.60;;;;;;;13.21;86.99;98940.97;5033145;28;20280;-75
2024/03/30 01:06:30;;;;;;;2.13;0.97;;;;;;;13.19;86.56;98929.72;5033603;28;20224;-77
2024/03/30 01:08:56;;;;;;;1.20;0.73;;;;;;;13.22;87.46;98946.13;5033115;28;20291;-76
2024/03/30 01:11:23;;;;;;;1.90;0.77;;;;;;;13.09;89.06;98948.53;5032459;28;20216;-76
2024/03/30 01:13:49;;;;;;;1.70;0.70;;;;;;;13.13;88.92;98903.84;5033296;28;20206;-77
2024/03/30 01:16:16;;;;;;;0.67;0.67;;;;;;;13.20;89.68;98928.78;5032799;28;20625;-76
2024/03/30 01:18:42;;;;;;;2.43;1.00;;;;;;;12.83;92.70;98915.88;5032614;28;20722;-76
2024/03/30 01:21:09;;;;;;;1.20;0.80;;;;;;;12.94;92.98;98898.75;5033218;28;20220;-76
2024/03/30 01:23:37;;;;;;;0.87;0.80;;;;;;;12.97;91.10;98885.50;5032686;28;20204;-76
2024/03/30 01:26:04;;;;;;;1.03;0.80;;;;;;;13.01;90.43;98902.75;5032760;28;20247;-77
2024/03/30 01:28:30;;;;;;;1.30;1.03;;;;;;;13.03;91.04;98882.53;5025043;28;20730;-75
2024/03/30 01:30:57;;;;;;;0.77;0.77;;;;;;;13.00;90.68;98874.84;5032722;28;20233;-76
2024/03/30 01:33:23;;;;;;;1.60;0.90;;;;;;;12.97;91.37;98862.75;5032717;28;20263;-76
2024/03/30 01:35:49;;;;;;;1.20;0.80;;;;;;;13.00;90.97;98853.88;5032665;28;20209;-76
2024/03/30 01:38:14;;;;;;;0.80;0.80;;;;;;;12.92;90.54;98867.41;5032782;28;20229;-76
2024/03/30 01:40:42;;;;;;;5.50;0.80;;;;;;;12.87;90.37;98869.44;5031645;28;20230;-76
2024/03/30 01:43:07;;;;;;;1.20;0.70;;;;;;;12.78;90.32;98854.19;5032556;28;20267;-76
2024/03/30 01:45:35;;;;;;;0.70;0.70;;;;;;;12.81;90.31;98839.19;5032730;28;20202;-76
2024/03/30 01:48:03;;;;;;;1.83;0.80;;;;;;;12.75;90.64;98830.81;5031793;28;20210;-77
2024/03/30 01:50:30;;;;;;;0.90;0.90;;;;;;;12.79;90.34;98837.59;5032451;28;20237;-76
2024/03/30 01:52:56;;;;;;;8.80;1.23;;;;;;;12.87;91.20;98833.59;5032279;28;20206;-76
2024/03/30 01:55:22;;;;;;;1.43;0.80;;;;;;;12.86;90.86;98825.81;5032029;28;20240;-76
2024/03/30 01:57:50;;;;;;;0.67;0.67;;;;;;;12.74;90.89;98842.19;5032571;28;20213;-76
2024/03/30 02:00:17;;;;;;;1.00;0.90;;;;;;;12.77;89.90;98852.53;5032213;28;20233;-77
2024/03/30 02:02:44;;;;;;;1.90;0.70;;;;;;;12.77;89.22;98865.63;5032087;28;20206;-76
2024/03/30 02:05:11;;;;;;;2.00;0.97;;;;;;;12.64;89.85;98868.03;5032134;28;20209;-76
2024/03/30 02:07:36;;;;;;;1.03;0.83;;;;;;;12.61;90.24;98858.56;5032292;28;20232;-76
2024/03/30 02:10:03;;;;;;;1.70;0.93;;;;;;;12.48;90.76;98860.13;5035624;28;20230;-75
2024/03/30 02:12:30;;;;;;;1.33;0.80;;;;;;;12.41;91.10;98830.00;5035835;28;20216;-76
2024/03/30 02:14:58;;;;;;;0.90;0.90;;;;;;;12.43;91.26;98815.91;5041416;28;20205;-76
2024/03/30 02:17:23;;;;;;;0.97;0.97;;;;;;;12.38;91.63;98814.44;5034411;28;20214;-76
2024/03/30 02:19:50;;;;;;;1.00;0.90;;;;;;;12.52;92.68;98802.31;5031491;28;20233;-76
2024/03/30 02:22:18;;;;;;;2.40;0.93;;;;;;;12.63;92.25;98791.28;5031792;28;20234;-76
2024/03/30 02:24:46;;;;;;;0.80;0.80;;;;;;;12.71;92.19;98806.56;5031790;28;20202;-74
2024/03/30 02:27:11;;;;;;;0.70;0.70;;;;;;;12.81;92.52;98796.44;5031416;28;20202;-76
2024/03/30 02:29:39;;;;;;;0.97;0.80;;;;;;;12.78;90.06;98801.84;5031971;28;20287;-76
2024/03/30 02:32:06;;;;;;;1.63;1.10;;;;;;;12.70;89.28;98826.69;5031469;28;20214;-76
2024/03/30 02:34:32;;;;;;;1.77;0.90;;;;;;;12.61;89.46;98839.41;5031217;28;20206;-76
2024/03/30 02:36:58;;;;;;;1.40;1.20;;;;;;;12.56;89.56;98839.63;5032006;28;20218;-76
2024/03/30 02:39:24;;;;;;;1.30;1.20;;;;;;;12.51;89.60;98834.66;5031268;28;20642;-76
2024/03/30 02:41:51;;;;;;;1.20;1.10;;;;;;;12.49;89.90;98846.13;5030993;28;20264;-76
2024/03/30 02:44:17;;;;;;;1.70;1.20;;;;;;;12.45;89.67;98853.28;5031616;28;20297;-77
2024/03/30 02:46:43;;;;;;;1.83;1.27;;;;;;;12.43;89.80;98844.69;5031478;28;20206;-76
2024/03/30 02:49:10;;;;;;;1.40;1.30;;;;;;;12.45;90.33;98853.28;5030889;28;20273;-76
2024/03/30 02:51:35;;;;;;;1.50;1.40;;;;;;;12.44;90.39;98838.50;5031272;28;20773;-76
2024/03/30 02:54:02;;;;;;;1.47;1.37;;;;;;;12.44;89.96;98830.66;5031389;28;20255;-76
2024/03/30 02:56:27;;;;;;;9.00;1.57;;;;;;;12.44;89.82;98825.41;5030858;28;20564;-77
2024/03/30 02:58:55;;;;;;;2.03;1.83;;;;;;;12.42;89.68;98832.50;5031415;28;20279;-76
2024/03/30 03:01:20;;;;;;;1.90;1.80;;;;;;;12.36;89.80;98822.38;5031052;28;20237;-76
2024/03/30 03:03:46;;;;;;;2.00;1.90;;;;;;;12.37;89.71;98821.44;5031197;28;20647;-76
2024/03/30 03:06:12;;;;;;;2.33;2.13;;;;;;;12.38;90.28;98822.28;5031243;28;20217;-75
2024/03/30 03:08:38;;;;;;;2.77;1.90;;;;;;;12.40;90.11;98825.66;5031046;28;20252;-76
2024/03/30 03:11:04;;;;;;;1.90;1.80;;;;;;;12.35;89.40;98819.81;5030867;28;20275;-76
2024/03/30 03:13:30;;;;;;;2.50;2.30;;;;;;;12.34;90.07;98818.16;5031126;28;20622;-76
2024/03/30 03:16:03;;;;;;;1.93;1.83;;;;;;;12.34;89.33;98815.53;5031054;28;20217;-77
2024/03/30 03:18:29;;;;;;;2.13;2.00;;;;;;;12.34;89.40;98821.59;5031165;28;20300;-76
2024/03/30 03:20:54;;;;;;;1.90;1.80;;;;;;;12.31;89.58;98829.63;5030969;28;20284;-76
2024/03/30 03:23:21;;;;;;;2.27;2.17;;;;;;;12.32;89.49;98813.00;5031079;28;20213;-75
2024/03/30 03:25:46;;;;;;;2.40;2.30;;;;;;;12.34;89.27;98818.97;5030329;28;20210;-76
2024/03/30 03:28:12;;;;;;;2.10;1.70;;;;;;;12.29;89.83;98814.00;5031176;28;20264;-76
2024/03/30 03:30:38;;;;;;;2.20;2.10;;;;;;;12.32;89.15;98821.66;5030843;28;20276;-75
2024/03/30 03:33:06;;;;;;;2.30;2.20;;;;;;;12.27;89.69;98808.00;5030756;28;20213;-76
2024/03/30 03:35:31;;;;;;;2.17;2.07;;;;;;;12.22;90.03;98794.31;5030892;28;20653;-76
2024/03/30 03:37:57;;;;;;;2.30;2.10;;;;;;;12.21;90.16;98789.16;5031044;28;20691;-76
2024/03/30 03:40:23;;;;;;;2.13;2.03;;;;;;;12.20;89.87;98800.56;5029977;28;20230;-75
2024/03/30 03:42:49;;;;;;;2.10;2.00;;;;;;;12.16;90.16;98791.19;5030970;28;20260;-76
2024/03/30 03:45:15;;;;;;;1.80;1.70;;;;;;;12.21;89.75;98786.53;5030879;28;20217;-76
2024/03/30 03:47:41;;;;;;;2.37;2.23;;;;;;;12.23;89.64;98790.78;5030881;28;20734;-76
2024/03/30 03:50:08;;;;;;;2.60;2.40;;;;;;;12.21;89.28;98787.41;5030734;28;20268;-76
2024/03/30 03:52:34;;;;;;;2.47;2.27;;;;;;;12.18;89.50;98791.94;5030787;28;20240;-77
2024/03/30 03:55:00;;;;;;;2.23;2.13;;;;;;;12.11;90.39;98778.34;5030687;28;20217;-76
2024/03/30 03:57:26;;;;;;;2.17;2.07;;;;;;;12.10;89.96;98774.84;5030399;28;20634;-76
2024/03/30 03:59:51;;;;;;;2.33;2.13;;;;;;;12.12;90.52;98775.63;5030700;28;20229;-76
2024/03/30 04:02:18;;;;;;;2.43;1.90;;;;;;;12.10;89.88;98769.63;5030528;28;20262;-77
2024/03/30 04:04:43;;;;;;;2.03;1.90;;;;;;;12.04;89.51;98775.19;5030668;28;20201;-74
2024/03/30 04:07:11;;;;;;;2.20;2.10;;;;;;;12.03;89.45;98776.13;5030914;28;20378;-77
2024/03/30 04:09:36;;;;;;;2.10;2.00;;;;;;;12.05;89.50;98779.50;5030343;28;20282;-75
2024/03/30 04:12:03;;;;;;;1.70;1.60;;;;;;;12.06;89.11;98785.56;5033679;28;20206;-76
2024/03/30 04:14:28;;;;;;;2.20;2.00;;;;;;;12.06;89.41;98789.03;5034177;28;20292;-76
2024/03/30 04:16:55;;;;;;;2.47;2.27;;;;;;;12.05;88.88;98786.47;5034256;28;20731;-76
2024/03/30 04:19:20;;;;;;;2.20;2.10;;;;;;;12.03;89.85;98785.72;5033945;28;20233;-73
2024/03/30 04:21:50;;;;;;;2.10;2.00;;;;;;;12.04;89.54;98779.56;5034028;28;20731;-76
2024/03/30 04:24:17;;;;;;;2.57;1.80;;;;;;;12.06;89.53;98785.56;5034229;28;20206;-76
2024/03/30 04:26:43;;;;;;;3.00;1.90;;;;;;;12.07;89.02;98785.50;5033552;28;20222;-75
2024/03/30 04:29:08;;;;;;;1.97;1.87;;;;;;;11.94;88.84;98797.50;5033843;28;20255;-77
2024/03/30 04:31:35;;;;;;;2.00;1.80;;;;;;;11.79;89.86;98766.88;5033493;28;20209;-77
2024/03/30 04:34:00;;;;;;;2.20;1.97;;;;;;;11.82;89.66;98761.50;5033896;28;20206;-76
2024/03/30 04:36:26;;;;;;;1.90;1.80;;;;;;;11.81;89.92;98762.41;5033976;28;20726;-76
2024/03/30 04:38:53;;;;;;;1.43;1.27;;;;;;;11.84;89.48;98764.88;5033671;28;20254;-75
2024/03/30 04:41:20;;;;;;;2.03;1.47;;;;;;;11.84;89.70;98755.25;5033199;28;20356;-74
2024/03/30 04:43:46;;;;;;;2.23;1.70;;;;;;;11.83;89.76;98758.81;5033561;28;20217;-76
2024/03/30 04:46:12;;;;;;;2.33;2.13;;;;;;;11.84;89.79;98752.66;5033699;28;20256;-75
2024/03/30 04:48:38;;;;;;;2.33;1.80;;;;;;;11.84;89.29;98751.81;5033519;28;20835;-76
2024/03/30 04:51:05;;;;;;;1.70;1.60;;;;;;;11.84;89.33;98754.44;5033423;28;20296;-76
2024/03/30 04:53:32;;;;;;;1.97;1.70;;;;;;;11.85;89.09;98756.97;5033635;28;20212;-76
2024/03/30 04:56:00;;;;;;;2.87;1.50;;;;;;;11.83;88.95;98752.72;5033125;28;20654;-76
2024/03/30 04:58:28;;;;;;;1.93;1.83;;;;;;;11.79;88.70;98745.97;5033697;28;20210;-77
2024/03/30 05:01:00;;;;;;;2.70;2.30;;;;;;;11.83;88.87;98750.97;5033230;28;20226;-76
2024/03/30 05:03:25;;;;;;;2.20;2.03;;;;;;;11.82;89.17;98748.44;5033336;28;20222;-77
2024/03/30 05:05:51;;;;;;;2.27;2.07;;;;;;;11.80;89.00;98743.28;5033177;28;20352;-77
2024/03/30 05:08:17;;;;;;;3.50;2.27;;;;;;;11.82;89.27;98749.28;5033525;28;20268;-76
2024/03/30 05:10:45;;;;;;;2.20;2.00;;;;;;;11.74;89.16;98746.19;5032044;28;20773;-76
2024/03/30 05:13:11;;;;;;;7.00;1.70;;;;;;;11.68;89.63;98729.06;5033387;28;20214;-76
2024/03/30 05:15:39;;;;;;;3.03;2.60;;;;;;;11.72;88.87;98722.75;5033209;28;20232;-76
2024/03/30 05:18:05;;;;;;;4.27;3.00;;;;;;;11.73;89.21;98736.66;5033327;28;20256;-76
2024/03/30 05:20:49;;;;;;;2.67;2.20;;;;;;;11.66;89.27;98741.38;5032734;28;20233;-76
2024/03/30 05:23:17;;;;;;;2.93;2.10;;;;;;;11.70;89.90;98734.22;5032242;28;20215;-77
2024/03/30 05:25:43;;;;;;;2.20;2.00;;;;;;;11.71;89.67;98725.44;5032531;28;20205;-77
2024/03/30 05:28:10;;;;;;;3.57;2.67;;;;;;;11.77;88.87;98734.75;5032995;28;20633;-76
2024/03/30 05:30:36;;;;;;;3.97;2.63;;;;;;;11.77;88.43;98755.66;5032701;28;20240;-76
2024/03/30 05:33:04;;;;;;;2.50;2.30;;;;;;;11.77;88.93;98760.88;5032750;28;20207;-76
2024/03/30 05:35:30;;;;;;;2.83;2.40;;;;;;;11.83;88.75;98758.81;5032409;28;20202;-76
2024/03/30 05:37:57;;;;;;;2.57;2.20;;;;;;;11.82;87.52;98770.19;5032793;28;20206;-77
2024/03/30 05:40:23;;;;;;;3.47;2.20;;;;;;;11.83;87.39;98776.25;5031733;28;20240;-74
2024/03/30 05:42:49;;;;;;;2.70;2.50;;;;;;;11.76;87.93;98775.72;5032716;28;20208;-77
2024/03/30 05:45:15;;;;;;;4.77;2.70;;;;;;;11.72;88.62;98767.19;5032844;28;20732;-77
2024/03/30 05:47:40;;;;;;;2.27;2.10;;;;;;;11.69;89.70;98748.19;5032397;28;20213;-76
2024/03/30 05:50:08;;;;;;;2.60;2.40;;;;;;;11.73;89.00;98737.53;5032109;28;20282;-77
2024/03/30 05:52:33;;;;;;;4.10;3.70;;;;;;;11.73;89.22;98745.38;5032220;28;20206;-76
2024/03/30 05:55:00;;;;;;;4.80;4.27;;;;;;;11.74;89.22;98751.44;5032670;28;20260;-77
2024/03/30 05:57:26;;;;;;;4.57;4.17;;;;;;;11.70;89.23;98755.97;5032191;28;20256;-76
2024/03/30 05:59:52;;;;;;;4.53;4.13;;;;;;;11.66;89.36;98740.53;5032416;28;20237;-76
2024/03/30 06:02:17;;;;;;;4.77;4.10;;;;;;;11.68;89.71;98738.69;5094688;22;20361;-78
2024/03/30 06:04:44;;;;;;;3.77;3.57;;;;;;;11.64;90.13;98735.38;5071514;28;20687;-78
2024/03/30 06:07:10;;;;;;;3.23;3.03;;;;;;;11.64;89.94;98721.47;5075962;28;20212;-78
2024/03/30 06:09:37;;;;;;;3.27;2.90;;;;;;;11.65;89.89;98730.97;5072429;28;20230;-78
2024/03/30 06:12:03;;;;;;;2.73;2.33;;;;;;;11.63;89.87;98730.22;5071652;28;20258;-75
2024/03/30 06:14:30;;;;;;;2.77;2.57;;;;;;;11.55;90.50;98716.69;5055148;28;20205;-75
2024/03/30 06:16:56;;;;;;;2.57;2.37;;;;;;;11.55;91.21;98699.25;5051792;28;20213;-75
2024/03/30 06:19:22;;;;;;;3.43;2.67;;;;;;;11.58;91.10;98691.25;5053638;28;20241;-78
2024/03/30 06:21:47;;;;;;;2.57;2.33;;;;;;;11.62;91.13;98690.19;5051657;28;20233;-78
2024/03/30 06:24:15;;;;;;;2.53;2.33;;;;;;;11.65;90.97;98690.00;5054511;28;20246;-78
2024/03/30 06:26:40;;;;;;;2.10;2.00;;;;;;;11.72;90.27;98691.38;5071390;28;20709;-77
2024/03/30 06:29:07;;;;;;;2.40;2.07;;;;;;;11.63;91.06;98702.31;5073168;28;20208;-77
2024/03/30 06:31:32;;;;;;;2.90;2.40;;;;;;;11.38;93.48;98680.97;5072142;28;20250;-77
2024/03/30 06:34:00;;;;;;;2.60;2.50;;;;;;;11.42;94.37;98652.00;5076366;28;20223;-77
2024/03/30 06:36:25;;;;;;;2.30;1.83;;;;;;;11.59;93.42;98640.66;5072550;28;20196;-78
2024/03/30 06:38:52;;;;;;;2.80;2.17;;;;;;;11.49;94.88;98648.13;5072602;28;20300;-75
2024/03/30 06:44:04;;;;;;;1.57;1.47;;;;;;;11.36;97.89;98575.69;5072145;28;20212;-77
2024/03/30 06:46:30;;;;;;;1.30;1.30;;;;;;;11.55;96.68;98573.81;5071533;28;20197;-76
2024/03/30 06:48:56;;;;;;;1.73;1.50;;;;;;;11.67;95.76;98585.38;5072102;28;20201;-77
2024/03/30 06:51:23;;;;;;;2.00;1.50;;;;;;;11.63;97.53;98589.94;5073560;28;20227;-77
2024/03/30 06:53:48;;;;;;;1.87;1.77;;;;;;;11.77;97.07;98575.28;5072776;28;20260;-78
2024/03/30 06:56:14;;;;;;;1.73;1.20;;;;;;;11.87;96.65;98587.78;5071856;28;20626;-78
2024/03/30 06:58:41;;;;;;;1.83;1.70;;;;;;;11.95;96.23;98586.56;5072577;28;20294;-78
2024/03/30 07:01:09;;;;;;;2.00;1.90;;;;;;;12.03;95.33;98597.44;5072482;28;20242;-78
2024/03/30 07:03:34;;;;;;;2.20;1.30;;;;;;;12.07;95.48;98591.97;5054616;28;20240;-77
2024/03/30 07:06:00;;;;;;;2.23;1.53;;;;;;;12.19;94.50;98610.50;5052348;28;20621;-78
2024/03/30 07:08:26;;;;;;;1.50;1.40;;;;;;;12.27;94.74;98610.97;5052047;28;20248;-77
2024/03/30 07:10:52;;;;;;;2.10;1.20;;;;;;;12.35;94.70;98614.00;5056103;28;20196;-78
2024/03/30 07:13:17;;;;;;;1.67;1.27;;;;;;;12.32;94.17;98638.53;5072130;28;20663;-77
2024/03/30 07:15:45;;;;;;;2.80;1.30;;;;;;;12.42;92.98;98649.34;5071372;28;20201;-77
2024/03/30 07:18:11;;;;;;;1.40;1.30;;;;;;;12.45;94.10;98651.78;5079016;28;20211;-77
2024/03/30 07:20:38;;;;;;;2.17;1.10;;;;;;;12.59;94.09;98651.03;5071646;28;20233;-78
2024/03/30 07:23:03;;;;;;;1.20;1.10;;;;;;;12.65;94.90;98616.66;5071468;28;20219;-78
2024/03/30 07:25:30;;;;;;;2.10;1.40;;;;;;;12.70;94.53;98627.72;5070601;28;20266;-77
2024/03/30 07:27:55;;;;;;;0.87;0.87;;;;;;;12.78;93.89;98623.78;5063848;28;20201;-77
2024/03/30 07:30:22;;;;;;;1.97;1.07;;;;;;;12.85;93.99;98619.91;5072266;28;20596;-77
2024/03/30 07:32:48;;;;;;;1.17;1.10;;;;;;;12.94;92.23;98655.19;5070952;28;20230;-78
2024/03/30 07:35:15;;;;;;;1.60;1.10;;;;;;;13.00;91.20;98673.16;5071551;28;20197;-78
2024/03/30 07:37:40;;;;;;;1.07;0.97;;;;;;;13.10;90.55;98690.03;5071848;28;20201;-77
2024/03/30 07:40:07;;;;;;;0.90;0.80;;;;;;;13.20;89.55;98701.69;5066056;28;20702;-76
2024/03/30 07:42:32;;;;;;;1.80;1.20;;;;;;;13.19;90.26;98704.41;5067591;28;20225;-78
2024/03/30 07:44:59;;;;;;;1.20;1.03;;;;;;;13.26;91.27;98690.84;5052947;28;20254;-77
2024/03/30 07:47:24;;;;;;;1.30;1.10;;;;;;;13.29;92.19;98674.97;5055357;28;20624;-77
2024/03/30 07:49:52;;;;;;;3.33;1.23;;;;;;;13.39;92.09;98669.19;5055243;28;20240;-78
2024/03/30 07:52:17;;;;;;;3.27;1.33;;;;;;;13.41;91.20;98686.50;5055139;28;20641;-78
2024/03/30 07:54:43;;;;;;;4.50;1.30;;;;;;;13.42;92.11;98677.72;5055498;28;20204;-78
2024/03/30 07:57:09;;;;;;;3.47;1.30;;;;;;;13.46;91.97;98675.78;5054579;28;20267;-78
2024/03/30 07:59:35;;;;;;;2.50;1.20;;;;;;;13.55;90.02;98700.59;5055244;28;20620;-78
2024/03/30 08:02:00;;;;;;;5.00;1.57;;;;;;;13.66;88.11;98724.41;5054871;28;20235;-78
2024/03/30 08:04:27;;;;;;;1.80;1.20;;;;;;;13.74;87.10;98771.16;5056234;28;20202;-78
2024/03/30 08:06:55;;;;;;;4.00;1.30;;;;;;;13.82;86.96;98782.88;5056762;28;20736;-77
2024/03/30 08:09:22;;;;;;;4.13;1.30;;;;;;;13.94;85.05;98817.19;5055551;28;20209;-78
2024/03/30 08:11:48;;;;;;;2.97;1.10;;;;;;;14.03;84.57;98827.13;5073603;28;20212;-77
2024/03/30 08:14:16;;;;;;;3.83;1.47;;;;;;;14.06;86.87;98821.69;5075334;28;20211;-78
2024/03/30 08:16:43;;;;;;;3.37;1.50;;;;;;;14.18;85.81;98813.09;5074521;28;20574;-78
2024/03/30 08:19:10;;;;;;;4.87;1.40;;;;;;;14.27;83.68;98851.06;5074943;28;20732;-77
2024/03/30 08:21:36;;;;;;;1.47;1.00;;;;;;;14.33;84.64;98855.09;5074164;28;20231;-74
2024/03/30 08:24:04;;;;;;;7.23;2.07;;;;;;;14.39;84.82;98841.59;5062191;28;20205;-76
2024/03/30 08:26:29;;;;;;;2.80;1.20;;;;;;;14.50;83.24;98865.44;5053488;28;20202;-75
2024/03/30 08:28:55;;;;;;;4.87;1.67;;;;;;;14.56;83.01;98883.47;5054112;28;20202;-75
2024/03/30 08:31:21;;;;;;;4.73;1.60;;;;;;;14.61;83.26;98893.72;5054153;28;20257;-78
2024/03/30 08:33:49;;;;;;;5.17;1.37;;;;;;;14.73;82.44;98889.47;5054031;28;20626;-78
2024/03/30 08:36:14;;;;;;;8.83;2.00;;;;;;;14.85;77.16;98985.94;5057094;28;20213;-76
2024/03/30 08:38:41;;;;;;;12.63;2.23;;;;;;;15.13;80.02;98987.75;5056875;28;20632;-77
2024/03/30 08:41:07;;;;;;;15.33;2.50;;;;;;;15.36;81.61;98962.69;5063578;28;20727;-77
2024/03/30 08:43:34;;;;;;;9.87;2.03;;;;;;;15.61;84.25;98890.09;5066768;28;20240;-77
2024/03/30 08:46:02;;;;;;;10.07;2.20;;;;;;;15.81;82.02;98899.34;5053729;28;20735;-78
2024/03/30 08:48:29;;;;;;;12.13;2.60;;;;;;;15.99;82.33;98894.66;5054365;28;20579;-80
2024/03/30 08:50:54;;;;;;;16.77;2.40;;;;;;;16.11;78.92;98951.75;5058384;28;20202;-79
2024/03/30 08:53:21;;;;;;;11.13;2.57;;;;;;;16.16;77.36;99014.66;5057892;28;20272;-80
2024/03/30 08:55:46;;;;;;;11.83;2.67;;;;;;;16.16;76.56;99060.25;5057635;28;20206;-79
2024/03/30 08:58:14;;;;;;;12.43;2.50;;;;;;;16.15;76.02;99094.56;5059282;28;20247;-80
2024/03/30 09:00:39;;;;;;;12.13;2.40;;;;;;;16.20;75.14;99092.50;5058720;28;20230;-80
2024/03/30 09:03:05;;;;;;;14.43;2.90;;;;;;;16.23;75.96;99095.78;5057966;28;20230;-81
2024/03/30 09:05:31;;;;;;;12.40;2.60;;;;;;;16.30;76.38;99087.50;5059242;28;20256;-80
2024/03/30 09:07:58;;;;;;;11.23;2.63;;;;;;;16.33;73.93;99113.63;5058482;28;20215;-81
2024/03/30 09:10:24;;;;;;;11.60;2.77;;;;;;;16.41;74.35;99137.66;5061808;28;20696;-82
2024/03/30 09:12:51;;;;;;;20.10;3.70;;;;;;;16.36;70.63;99245.13;5075591;28;20344;-81
2024/03/30 09:15:19;;;;;;;10.73;2.60;;;;;;;16.46;69.78;99262.88;5057988;28;20619;-81
2024/03/30 09:17:45;;;;;;;10.93;2.83;;;;;;;16.60;71.17;99248.00;5058257;28;20226;-81
2024/03/30 09:20:10;;;;;;;18.57;3.37;;;;;;;16.58;67.56;99284.13;5058148;28;20243;-81
2024/03/30 09:22:37;;;;;;;13.37;3.37;;;;;;;16.60;72.33;99280.44;5058469;28;20228;-81
2024/03/30 09:25:07;;;;;;;11.50;2.63;;;;;;;16.73;73.80;99211.16;5058547;28;20209;-80
2024/03/30 09:27:34;;;;;;;19.50;3.30;;;;;;;16.75;70.17;99206.63;5060022;28;20643;-82
2024/03/30 09:29:59;;;;;;;18.60;3.60;;;;;;;16.78;66.95;99290.78;5060110;28;20206;-81
2024/03/30 09:32:27;;;;;;;15.40;3.27;;;;;;;16.91;63.27;99333.91;5059539;28;20761;-81
2024/03/30 09:34:52;;;;;;;19.77;3.40;;;;;;;17.10;64.60;99406.56;5060251;28;20207;-81
2024/03/30 09:37:18;;;;;;;9.83;2.80;;;;;;;17.21;63.24;99435.75;5060125;28;20264;-81
2024/03/30 09:39:44;;;;;;;15.47;3.00;;;;;;;17.26;62.91;99457.41;5062305;28;20205;-81
2024/03/30 09:42:16;;;;;;;18.53;3.67;;;;;;;17.45;65.74;99433.38;5069558;28;20260;-81
2024/03/30 09:44:41;;;;;;;14.93;3.23;;;;;;;17.39;60.03;99463.63;5061552;28;20203;-81
2024/03/30 09:47:09;;;;;;;16.80;3.20;;;;;;;17.47;59.62;99523.81;5059924;28;20249;-82
2024/03/30 09:49:38;;;;;;;22.03;3.30;;;;;;;17.55;60.68;99512.78;5067967;28;20227;-81
2024/03/30 09:52:06;;;;;;;18.83;3.07;;;;;;;17.71;61.37;99526.72;5067399;28;20226;-80
2024/03/30 09:54:34;;;;;;;14.50;3.37;;;;;;;17.65;59.50;99582.53;5057237;28;20204;-81
2024/03/30 09:57:02;;;;;;;20.00;3.60;;;;;;;17.84;63.68;99526.81;5057541;28;20208;-81
2024/03/30 09:59:28;;;;;;;14.70;3.73;;;;;;;17.86;62.03;99491.44;5056033;28;20203;-78
2024/03/30 10:01:55;;;;;;;14.23;3.47;;;;;;;17.98;62.44;99516.22;5054220;28;20228;-78
2024/03/30 10:04:20;;;;;;;15.10;3.23;;;;;;;18.08;63.66;99497.13;5052726;28;20207;-77
2024/03/30 10:06:54;;;;;;;17.43;3.57;;;;;;;18.09;66.66;99438.09;5053225;28;20648;-77
2024/03/30 10:09:22;;;;;;;16.90;3.70;;;;;;;18.14;67.58;99375.25;5052839;28;20639;-76
2024/03/30 10:11:51;;;;;;;21.07;3.50;;;;;;;18.19;67.78;99352.81;5063523;28;20203;-77
2024/03/30 10:14:26;;;;;;;19.97;3.60;;;;;;;18.23;66.84;99362.22;5060412;28;20249;-77
2024/03/30 10:16:53;;;;;;;23.33;4.17;;;;;;;18.24;61.10;99421.22;5053040;28;20238;-77
2024/03/30 10:19:19;;;;;;;16.10;3.03;;;;;;;18.19;61.21;99505.19;5052724;28;20205;-77
2024/03/30 10:21:46;;;;;;;13.90;3.53;;;;;;;18.24;60.05;99543.56;5053338;28;20259;-78
2024/03/30 10:24:13;;;;;;;20.98;4.10;;;;;;;18.19;54.54;99595.84;4358698;28;10000779;-77
2024/03/30 10:26:41;;;;;;;10.67;3.27;;;;;;;18.32;57.60;99608.28;5070868;28;20639;-76
2024/03/30 10:29:08;;;;;;;29.63;3.87;;;;;;;18.43;58.94;99598.72;5069733;28;20204;-77
2024/03/30 10:31:35;;;;;;;29.53;3.40;;;;;;;18.50;58.62;99593.88;5070346;28;20215;-77
2024/03/30 10:34:00;;;;;;;19.17;4.67;;;;;;;18.41;59.15;99590.06;5070220;28;20233;-77
2024/03/30 10:36:27;;;;;;;26.30;4.17;;;;;;;18.46;59.40;99598.50;5069636;28;20206;-77
2024/03/30 10:38:53;;;;;;;29.67;5.27;;;;;;;18.37;60.12;99564.75;5069312;28;20747;-77
2024/03/30 10:41:20;;;;;;;23.63;4.97;;;;;;;18.38;57.44;99592.88;5060862;28;20227;-77
2024/03/30 10:43:46;;;;;;;22.00;4.70;;;;;;;18.33;55.34;99644.31;5061394;28;20645;-77
2024/03/30 10:46:13;;;;;;;26.27;5.70;;;;;;;18.42;58.52;99628.72;5049356;28;20209;-77
2024/03/30 10:48:38;;;;;;;20.43;4.30;;;;;;;18.45;54.34;99669.94;5049999;28;20209;-77
2024/03/30 10:51:05;;;;;;;23.53;4.43;;;;;;;18.51;54.64;99687.22;5051917;28;20641;-77
2024/03/30 10:53:31;;;;;;;32.33;4.57;;;;;;;18.56;58.37;99661.34;5051653;28;20235;-77
2024/03/30 10:55:57;;;;;;;26.03;4.97;;;;;;;18.50;59.97;99599.16;5050242;28;20207;-77
2024/03/30 10:58:24;;;;;;;39.57;5.20;;;;;;;18.46;61.77;99535.09;5064257;28;20253;-77
2024/03/30 11:00:52;;;;;;;24.00;4.23;;;;;;;18.38;64.72;99471.34;5053162;28;20719;-76
2024/03/30 11:03:18;;;;;;;31.13;5.30;;;;;;;18.42;66.82;99412.03;5050218;28;20230;-77
2024/03/30 11:05:47;;;;;;;27.70;5.43;;;;;;;18.45;68.56;99339.63;5058703;28;20211;-78
2024/03/30 11:08:13;;;;;;;27.10;5.13;;;;;;;18.52;67.15;99330.34;5062160;28;20218;-77
2024/03/30 11:10:40;;;;;;;18.30;4.97;;;;;;;18.52;65.55;99348.84;5061076;28;20209;-77
2024/03/30 11:13:06;;;;;;;33.20;4.63;;;;;;;18.57;64.30;99367.00;5065620;28;20233;-77
2024/03/30 11:15:37;;;;;;;33.83;5.10;;;;;;;18.54;62.01;99430.66;5050262;28;20208;-78
2024/03/30 11:18:05;;;;;;;27.97;4.70;;;;;;;18.55;64.42;99438.50;5060642;28;20212;-78
2024/03/30 11:20:39;;;;;;;20.20;5.93;;;;;;;18.62;64.66;99426.53;5056489;28;20208;-77
2024/03/30 11:23:08;;;;;;;28.70;4.80;;;;;;;18.50;61.28;99443.22;5053324;28;20232;-78
2024/03/30 11:25:36;;;;;;;45.33;6.33;;;;;;;18.57;61.14;99483.28;5068988;28;20284;-77
2024/03/30 11:28:06;;;;;;;40.90;6.13;;;;;;;18.51;59.33;99533.94;5073473;28;20257;-78
2024/03/30 11:30:37;;;;;;;30.90;5.60;;;;;;;18.46;57.27;99564.16;5074311;28;20200;-77